Time;durP1;ratioP1;P1;durP2;ratioP2;P2;SDS_P1;SDS_P2;PMS_P1;PMS_P2;Temp;Humidity;BMP_temperature;BMP_pressure;BME280_temperature;BME280_humidity;BME280_pressure;Samples;Min_cycle;Max_cycle;Signal;HPM_P1;HPM_P2
2023/05/12 00:00:18;;;;;;;5.35;1.60;;;;;;;9.44;100.00;100708.00;4936904;29;20445;-75
2023/05/12 00:02:43;;;;;;;7.65;1.40;;;;;;;9.40;100.00;100705.78;4939550;29;20036;-76
2023/05/12 00:05:09;;;;;;;6.78;1.58;;;;;;;9.37;100.00;100705.53;4924183;29;20032;-76
2023/05/12 00:07:35;;;;;;;5.07;1.45;;;;;;;9.37;100.00;100702.75;4927252;29;20090;-76
2023/05/12 00:10:01;;;;;;;7.70;1.95;;;;;;;9.36;100.00;100704.72;4939722;29;20028;-76
2023/05/12 00:12:26;;;;;;;6.10;1.70;;;;;;;9.35;100.00;100702.22;4923872;29;20140;-75
2023/05/12 00:14:51;;;;;;;9.20;1.77;;;;;;;9.34;100.00;100706.09;4939760;29;20031;-75
2023/05/12 00:17:17;;;;;;;6.15;1.65;;;;;;;9.33;100.00;100708.03;4920915;29;20084;-76
2023/05/12 00:19:43;;;;;;;7.65;1.80;;;;;;;9.31;100.00;100703.91;4907971;29;20054;-75
2023/05/12 00:22:11;;;;;;;7.55;1.70;;;;;;;9.28;100.00;100707.22;4939656;29;20039;-75
2023/05/12 00:24:37;;;;;;;6.82;1.70;;;;;;;9.26;100.00;100703.91;4927567;29;20039;-75
2023/05/12 00:27:03;;;;;;;6.45;1.50;;;;;;;9.24;100.00;100703.34;4923446;29;20033;-75
2023/05/12 00:29:28;;;;;;;7.55;1.50;;;;;;;9.22;100.00;100702.78;4941007;29;20040;-75
2023/05/12 00:31:57;;;;;;;5.72;1.40;;;;;;;9.23;100.00;100701.69;4922639;29;20058;-76
2023/05/12 00:34:22;;;;;;;4.65;1.50;;;;;;;9.25;100.00;100697.53;4939374;29;20032;-75
2023/05/12 00:36:47;;;;;;;5.07;1.40;;;;;;;9.22;100.00;100691.69;4923438;29;20377;-75
2023/05/12 00:39:13;;;;;;;8.07;1.38;;;;;;;9.18;100.00;100686.72;4922908;29;20036;-75
2023/05/12 00:41:38;;;;;;;7.35;1.70;;;;;;;9.15;100.00;100687.28;4939256;29;20031;-75
2023/05/12 00:44:04;;;;;;;9.30;2.30;;;;;;;9.14;100.00;100688.41;4939383;29;20059;-75
2023/05/12 00:46:30;;;;;;;4.88;1.40;;;;;;;9.12;100.00;100685.06;4938864;29;20031;-75
2023/05/12 00:48:55;;;;;;;6.07;1.30;;;;;;;9.11;100.00;100683.44;4919981;29;20032;-75
2023/05/12 00:51:21;;;;;;;3.67;1.70;;;;;;;9.10;100.00;100687.28;4923064;29;20302;-76
2023/05/12 00:53:47;;;;;;;9.55;1.90;;;;;;;9.07;100.00;100682.31;4922678;29;20039;-75
2023/05/12 00:56:12;;;;;;;5.20;1.73;;;;;;;9.06;100.00;100686.19;4938889;29;20590;-75
2023/05/12 00:58:38;;;;;;;6.18;1.67;;;;;;;9.01;100.00;100682.63;4923236;29;20039;-75
2023/05/12 01:01:03;;;;;;;7.32;1.85;;;;;;;8.98;100.00;100677.63;4938698;28;20036;-75
2023/05/12 01:03:29;;;;;;;7.22;1.85;;;;;;;8.96;100.00;100680.66;4922871;29;20032;-76
2023/05/12 01:05:59;;;;;;;7.82;1.88;;;;;;;8.94;100.00;100682.88;4938575;29;20031;-76
2023/05/12 01:08:25;;;;;;;4.47;1.45;;;;;;;8.91;100.00;100677.91;4938300;29;20036;-76
2023/05/12 01:10:51;;;;;;;6.82;1.63;;;;;;;8.86;100.00;100686.22;4922881;29;20133;-75
2023/05/12 01:13:16;;;;;;;7.50;1.90;;;;;;;8.84;100.00;100691.22;4907174;29;20090;-75
2023/05/12 01:15:45;;;;;;;6.13;1.58;;;;;;;8.80;100.00;100681.78;4938298;29;20042;-76
2023/05/12 01:18:10;;;;;;;9.30;1.83;;;;;;;8.80;100.00;100687.31;4923094;29;20104;-75
2023/05/12 01:20:36;;;;;;;5.78;1.40;;;;;;;8.77;100.00;100682.34;4909354;29;20032;-75
2023/05/12 01:23:01;;;;;;;5.18;1.55;;;;;;;8.73;100.00;100682.91;4922266;29;20035;-75
2023/05/12 01:25:28;;;;;;;4.88;1.55;;;;;;;8.69;100.00;100681.81;4922503;29;20035;-75
2023/05/12 01:27:53;;;;;;;4.70;1.80;;;;;;;8.67;100.00;100681.25;4922765;29;20031;-75
2023/05/12 01:30:19;;;;;;;4.90;1.52;;;;;;;8.64;100.00;100679.03;4935285;28;20035;-75
2023/05/12 01:32:44;;;;;;;6.53;1.50;;;;;;;8.62;100.00;100686.78;4922709;29;20098;-75
2023/05/12 01:35:10;;;;;;;5.47;1.40;;;;;;;8.59;100.00;100686.53;4922569;29;20034;-76
2023/05/12 01:37:35;;;;;;;4.72;1.40;;;;;;;8.56;100.00;100687.06;4938019;29;20083;-75
2023/05/12 01:40:01;;;;;;;4.00;1.45;;;;;;;8.51;100.00;100693.44;4922102;29;20051;-75
2023/05/12 01:42:27;;;;;;;4.20;1.50;;;;;;;8.48;100.00;100691.22;4939433;29;20043;-75
2023/05/12 01:44:52;;;;;;;4.63;1.85;;;;;;;8.47;100.00;100681.25;4937561;29;20106;-75
2023/05/12 01:47:18;;;;;;;3.65;1.23;;;;;;;8.47;100.00;100684.03;4922421;29;20123;-75
2023/05/12 01:49:44;;;;;;;4.00;1.67;;;;;;;8.45;100.00;100691.78;4937945;29;20032;-75
2023/05/12 01:52:09;;;;;;;5.03;1.45;;;;;;;8.41;100.00;100687.88;4919585;29;20119;-75
2023/05/12 01:54:35;;;;;;;5.70;1.23;;;;;;;8.40;100.00;100686.22;4916892;29;20039;-75
2023/05/12 01:57:00;;;;;;;5.15;1.73;;;;;;;8.38;100.00;100680.91;4918962;29;20044;-75
2023/05/12 01:59:26;;;;;;;5.18;1.77;;;;;;;8.37;100.00;100679.25;4920242;29;20036;-75
2023/05/12 02:01:51;;;;;;;4.85;2.30;;;;;;;8.39;100.00;100679.03;4939087;29;20032;-75
2023/05/12 02:04:17;;;;;;;4.32;2.10;;;;;;;8.43;100.00;100682.91;4938680;29;20452;-75
2023/05/12 02:06:43;;;;;;;6.88;2.55;;;;;;;8.46;100.00;100680.41;4921980;29;20051;-75
2023/05/12 02:09:08;;;;;;;5.55;2.08;;;;;;;8.48;100.00;100689.28;4937282;29;20046;-75
2023/05/12 02:11:34;;;;;;;5.10;1.90;;;;;;;8.53;100.00;100687.63;4939010;29;20032;-76
2023/05/12 02:13:59;;;;;;;4.55;1.80;;;;;;;8.55;100.00;100688.16;4938748;29;20404;-76
2023/05/12 02:16:25;;;;;;;4.32;1.92;;;;;;;8.56;100.00;100687.91;4938789;29;20039;-75
2023/05/12 02:18:50;;;;;;;3.78;1.92;;;;;;;8.61;100.00;100681.50;4950708;29;20093;-75
2023/05/12 02:21:16;;;;;;;3.33;1.80;;;;;;;8.63;100.00;100688.44;4921874;29;20028;-75
2023/05/12 02:23:41;;;;;;;6.38;2.20;;;;;;;8.68;100.00;100685.66;4938902;29;20059;-75
2023/05/12 02:26:07;;;;;;;5.13;1.95;;;;;;;8.73;100.00;100685.69;4903037;29;20047;-75
2023/05/12 02:28:32;;;;;;;3.35;1.77;;;;;;;8.75;100.00;100690.09;4937096;29;20039;-76
2023/05/12 02:30:58;;;;;;;5.13;2.00;;;;;;;8.79;100.00;100686.50;4919086;29;20087;-76
2023/05/12 02:33:23;;;;;;;3.53;2.05;;;;;;;8.85;100.00;100690.09;4938886;29;20031;-75
2023/05/12 02:35:49;;;;;;;2.75;1.70;;;;;;;8.88;100.00;100695.06;4919564;29;20036;-76
2023/05/12 02:38:14;;;;;;;4.22;1.80;;;;;;;8.88;100.00;100689.53;4921402;29;20035;-76
2023/05/12 02:40:40;;;;;;;4.43;1.83;;;;;;;8.93;100.00;100692.31;4936909;29;20056;-76
2023/05/12 02:43:06;;;;;;;4.68;1.60;;;;;;;8.98;100.00;100697.03;4941727;29;20035;-76
2023/05/12 02:45:31;;;;;;;3.38;1.70;;;;;;;9.02;100.00;100693.41;4922671;29;20042;-76
2023/05/12 02:47:56;;;;;;;3.95;1.45;;;;;;;9.03;100.00;100697.03;4921803;29;20103;-76
2023/05/12 02:50:22;;;;;;;2.60;1.17;;;;;;;9.06;100.00;100691.75;4921658;29;20024;-76
2023/05/12 02:52:48;;;;;;;3.80;1.48;;;;;;;9.07;100.00;100698.09;4937259;29;20039;-76
2023/05/12 02:55:13;;;;;;;3.40;1.48;;;;;;;9.08;100.00;100683.13;4938087;29;20055;-76
2023/05/12 02:57:39;;;;;;;1.80;1.60;;;;;;;9.09;100.00;100691.19;4942714;29;20038;-76
2023/05/12 03:00:05;;;;;;;1.98;1.48;;;;;;;9.13;100.00;100686.72;4928503;29;20023;-76
2023/05/12 03:02:34;;;;;;;2.33;1.50;;;;;;;9.14;100.00;100682.88;4913430;29;20396;-76
2023/05/12 03:05:00;;;;;;;2.13;1.63;;;;;;;9.16;100.00;100683.41;4910234;29;20091;-76
2023/05/12 03:07:26;;;;;;;3.90;2.20;;;;;;;9.16;100.00;100690.88;4925375;29;20432;-76
2023/05/12 03:09:51;;;;;;;2.97;1.65;;;;;;;9.17;100.00;100687.84;4937850;29;20047;-76
2023/05/12 03:12:17;;;;;;;1.90;1.35;;;;;;;9.16;100.00;100683.41;4940896;29;20036;-76
2023/05/12 03:14:42;;;;;;;1.92;1.55;;;;;;;9.19;100.00;100687.53;4941003;29;20032;-76
2023/05/12 03:17:08;;;;;;;3.50;1.70;;;;;;;9.23;100.00;100687.84;4909214;29;20035;-76
2023/05/12 03:19:33;;;;;;;2.00;1.80;;;;;;;9.24;100.00;100692.25;4940847;29;20090;-76
2023/05/12 03:21:59;;;;;;;2.45;1.90;;;;;;;9.23;100.00;100687.84;4924916;29;20091;-76
2023/05/12 03:24:25;;;;;;;2.35;1.88;;;;;;;9.25;100.00;100686.44;4924753;29;20046;-76
2023/05/12 03:26:51;;;;;;;2.25;1.70;;;;;;;9.24;100.00;100679.22;4909187;29;20032;-76
2023/05/12 03:29:16;;;;;;;3.47;1.67;;;;;;;9.27;100.00;100680.59;4896832;29;20504;-76
2023/05/12 03:31:42;;;;;;;1.80;1.60;;;;;;;9.27;100.00;100686.97;4924652;29;20110;-76
2023/05/12 03:34:07;;;;;;;3.17;1.80;;;;;;;9.29;100.00;100679.22;4924346;29;20038;-76
2023/05/12 03:36:32;;;;;;;1.88;1.60;;;;;;;9.30;100.00;100682.81;4950248;29;20576;-76
2023/05/12 03:38:58;;;;;;;2.10;1.52;;;;;;;9.28;100.00;100685.88;4940436;29;20551;-76
2023/05/12 03:41:23;;;;;;;1.80;1.40;;;;;;;9.30;100.00;100680.03;4924786;29;20035;-76
2023/05/12 03:43:49;;;;;;;1.90;1.67;;;;;;;9.33;100.00;100685.03;4924523;29;20035;-76
2023/05/12 03:46:15;;;;;;;1.90;1.50;;;;;;;9.35;100.00;100680.03;4941458;29;20042;-76
2023/05/12 03:48:40;;;;;;;4.70;2.40;;;;;;;9.32;100.00;100683.38;4940510;29;20484;-76
2023/05/12 03:51:05;;;;;;;2.30;1.63;;;;;;;9.31;100.00;100681.72;4940251;29;20475;-76
2023/05/12 03:53:31;;;;;;;2.10;1.63;;;;;;;9.35;100.00;100682.81;4924337;29;20051;-76
2023/05/12 03:55:56;;;;;;;3.45;2.00;;;;;;;9.36;100.00;100685.31;4924375;29;20401;-76
2023/05/12 03:58:23;;;;;;;2.28;1.60;;;;;;;9.39;100.00;100679.19;4924212;29;20059;-76
2023/05/12 04:00:49;;;;;;;3.50;1.90;;;;;;;9.36;100.00;100692.75;4940267;29;20101;-76
2023/05/12 04:03:17;;;;;;;3.67;1.83;;;;;;;9.32;100.00;100680.59;4908704;29;20028;-76
2023/05/12 04:05:42;;;;;;;1.48;1.23;;;;;;;9.35;100.00;100682.81;4924100;29;20369;-76
2023/05/12 04:08:08;;;;;;;1.52;1.20;;;;;;;9.37;100.00;100680.59;4940942;29;20035;-76
2023/05/12 04:10:40;;;;;;;1.65;1.23;;;;;;;9.40;100.00;100685.56;4936878;29;20032;-76
2023/05/12 04:13:07;;;;;;;15.50;2.72;;;;;;;9.36;100.00;100690.00;4920656;29;20477;-76
2023/05/12 04:15:34;;;;;;;2.72;1.38;;;;;;;9.39;100.00;100689.47;4904894;29;20349;-76
2023/05/12 04:18:00;;;;;;;1.90;1.70;;;;;;;9.34;100.00;100690.28;4936585;29;20035;-76
2023/05/12 04:20:25;;;;;;;2.75;1.80;;;;;;;9.36;100.00;100688.06;4920685;29;20036;-76
2023/05/12 04:22:51;;;;;;;4.45;1.73;;;;;;;9.37;100.00;100691.69;4939616;29;20392;-76
2023/05/12 04:25:16;;;;;;;3.50;1.90;;;;;;;9.37;100.00;100686.13;4923794;29;20043;-76
2023/05/12 04:27:41;;;;;;;2.63;1.38;;;;;;;9.40;100.00;100691.09;4938764;29;20028;-76
2023/05/12 04:30:07;;;;;;;7.07;2.25;;;;;;;9.42;100.00;100691.66;4940729;29;20439;-76
2023/05/12 04:32:33;;;;;;;1.60;1.50;;;;;;;9.40;100.00;100691.94;4939712;29;20111;-76
2023/05/12 04:34:58;;;;;;;2.20;1.90;;;;;;;9.40;100.00;100693.88;4945731;29;20040;-76
2023/05/12 04:37:24;;;;;;;2.65;2.03;;;;;;;9.36;100.00;100690.00;4940764;29;20031;-76
2023/05/12 04:39:49;;;;;;;1.65;1.40;;;;;;;9.39;100.00;100700.53;4939211;29;20032;-76
2023/05/12 04:42:15;;;;;;;2.72;2.13;;;;;;;9.42;100.00;100705.53;4923728;29;20055;-76
2023/05/12 04:44:40;;;;;;;3.13;1.52;;;;;;;9.42;100.00;100699.13;4921541;29;20485;-76
2023/05/12 04:47:06;;;;;;;1.80;1.35;;;;;;;9.40;100.00;100705.78;4939226;28;20038;-76
2023/05/12 04:49:31;;;;;;;2.63;1.50;;;;;;;9.42;100.00;100710.22;4923377;29;20388;-76
2023/05/12 04:51:57;;;;;;;2.33;1.40;;;;;;;9.47;100.00;100707.44;4940676;29;20388;-76
2023/05/12 04:54:22;;;;;;;2.63;1.60;;;;;;;9.45;100.00;100704.97;4937147;29;20043;-76
2023/05/12 04:56:48;;;;;;;4.25;2.22;;;;;;;9.46;100.00;100706.59;4938889;29;20160;-76
2023/05/12 04:59:16;;;;;;;2.28;1.77;;;;;;;9.47;100.00;100712.97;4939277;29;20060;-76
2023/05/12 05:01:42;;;;;;;3.17;2.00;;;;;;;9.48;100.00;100715.47;4939134;29;20114;-76
2023/05/12 05:04:07;;;;;;;6.68;2.85;;;;;;;9.50;100.00;100716.03;4921689;29;20032;-76
2023/05/12 05:06:33;;;;;;;5.20;3.03;;;;;;;9.45;100.00;100721.59;4938879;29;20046;-76
2023/05/12 05:08:58;;;;;;;3.45;2.15;;;;;;;9.48;100.00;100714.66;4939791;29;20047;-76
2023/05/12 05:11:24;;;;;;;11.13;4.45;;;;;;;9.42;100.00;100718.53;4938862;29;20043;-76
2023/05/12 05:13:50;;;;;;;10.93;3.58;;;;;;;9.42;100.00;100727.69;4939879;29;20044;-76
2023/05/12 05:16:15;;;;;;;7.13;2.97;;;;;;;9.42;100.00;100722.16;4919650;29;20459;-76
2023/05/12 05:18:45;;;;;;;4.55;2.60;;;;;;;9.46;100.00;100720.47;4938289;29;20500;-76
2023/05/12 05:21:11;;;;;;;5.00;3.35;;;;;;;9.43;100.00;100718.25;4939941;29;20340;-76
2023/05/12 05:23:37;;;;;;;5.70;3.22;;;;;;;9.46;100.00;100734.31;4907042;29;20067;-76
2023/05/12 05:26:02;;;;;;;3.95;2.90;;;;;;;9.49;100.00;100739.31;4938493;29;20039;-76
2023/05/12 05:28:28;;;;;;;5.68;2.80;;;;;;;9.52;100.00;100733.19;4922838;29;20055;-76
2023/05/12 05:30:53;;;;;;;6.60;3.00;;;;;;;9.52;100.00;100724.88;4935344;29;20032;-76
2023/05/12 05:33:19;;;;;;;4.07;2.70;;;;;;;9.54;100.00;100730.97;4938376;29;20039;-76
2023/05/12 05:35:45;;;;;;;7.78;3.55;;;;;;;9.59;100.00;100730.16;4922784;29;20032;-76
2023/05/12 05:38:11;;;;;;;9.25;4.53;;;;;;;9.58;100.00;100728.47;4920334;29;20533;-76
2023/05/12 05:40:37;;;;;;;6.80;3.67;;;;;;;9.58;100.00;100739.56;4906651;29;20028;-76
2023/05/12 05:43:02;;;;;;;5.93;3.20;;;;;;;9.68;100.00;100735.94;4922452;29;20043;-76
2023/05/12 05:45:28;;;;;;;8.73;3.95;;;;;;;9.68;100.00;100736.75;4922395;29;20035;-76
2023/05/12 05:47:53;;;;;;;5.70;3.85;;;;;;;9.69;100.00;100737.59;4922265;29;20028;-76
2023/05/12 05:50:19;;;;;;;13.35;3.42;;;;;;;9.72;100.00;100745.34;4938398;29;20035;-76
2023/05/12 05:52:45;;;;;;;9.55;3.90;;;;;;;9.74;100.00;100743.13;4937956;29;20114;-76
2023/05/12 05:55:11;;;;;;;7.95;3.53;;;;;;;9.73;100.00;100745.06;4934744;29;20055;-76
2023/05/12 05:57:36;;;;;;;6.35;3.83;;;;;;;9.76;100.00;100747.28;4918922;29;20039;-76
2023/05/12 06:00:03;;;;;;;18.05;4.18;;;;;;;9.76;100.00;100746.44;4933743;29;20064;-76
2023/05/12 06:02:30;;;;;;;13.30;3.67;;;;;;;9.78;100.00;100747.84;4903644;29;20044;-76
2023/05/12 06:04:56;;;;;;;8.80;3.45;;;;;;;9.80;100.00;100750.31;4919372;29;20036;-76
2023/05/12 06:07:21;;;;;;;8.70;3.47;;;;;;;9.81;100.00;100752.81;4918646;29;20047;-76
2023/05/12 06:09:47;;;;;;;5.07;2.50;;;;;;;9.87;100.00;100750.84;4934856;29;20425;-76
2023/05/12 06:12:12;;;;;;;5.32;3.17;;;;;;;9.92;100.00;100756.38;4920054;29;20060;-77
2023/05/12 06:14:38;;;;;;;4.05;3.10;;;;;;;9.94;100.00;100761.63;4934725;29;20091;-76
2023/05/12 06:17:03;;;;;;;9.40;3.17;;;;;;;9.98;100.00;100763.56;4934658;29;20043;-76
2023/05/12 06:19:29;;;;;;;3.85;2.90;;;;;;;10.04;100.00;100767.97;4915873;29;20063;-76
2023/05/12 06:21:54;;;;;;;10.35;3.65;;;;;;;10.04;100.00;100765.19;4934783;29;20039;-76
2023/05/12 06:24:20;;;;;;;16.63;3.22;;;;;;;10.05;100.00;100764.06;4934425;29;20052;-76
2023/05/12 06:26:45;;;;;;;8.35;2.90;;;;;;;10.11;100.00;100767.66;4918861;29;20079;-76
2023/05/12 06:29:11;;;;;;;5.82;2.80;;;;;;;10.15;100.00;100777.09;4919505;29;20039;-76
2023/05/12 06:31:36;;;;;;;5.18;2.53;;;;;;;10.21;100.00;100775.13;4921977;29;20035;-77
2023/05/12 06:34:03;;;;;;;6.18;2.50;;;;;;;10.27;100.00;100772.03;4923698;29;20083;-76
2023/05/12 06:36:29;;;;;;;5.35;3.13;;;;;;;10.29;100.00;100775.38;4907243;29;20035;-76
2023/05/12 06:38:55;;;;;;;8.55;3.80;;;;;;;10.33;100.00;100780.34;4922353;29;20043;-76
2023/05/12 06:41:22;;;;;;;3.72;2.63;;;;;;;10.39;100.00;100779.19;4923691;29;20384;-76
2023/05/12 06:43:48;;;;;;;4.97;2.95;;;;;;;10.43;100.00;100774.75;4938159;29;20035;-77
2023/05/12 06:46:13;;;;;;;6.35;3.90;;;;;;;10.47;100.00;100771.13;4938337;29;20036;-76
2023/05/12 06:48:38;;;;;;;13.50;4.20;;;;;;;10.56;100.00;100779.69;4938655;29;20036;-77
2023/05/12 06:51:04;;;;;;;6.97;3.80;;;;;;;10.60;100.00;100780.75;4923460;29;20130;-76
2023/05/12 06:53:30;;;;;;;7.90;4.18;;;;;;;10.70;100.00;100786.25;4923439;29;20089;-76
2023/05/12 06:55:55;;;;;;;11.32;4.60;;;;;;;10.72;100.00;100788.72;4935565;29;20045;-76
2023/05/12 06:58:20;;;;;;;8.45;4.53;;;;;;;10.80;100.00;100784.50;4934846;29;20032;-76
2023/05/12 07:00:46;;;;;;;6.88;4.05;;;;;;;10.87;100.00;100794.19;4922094;29;20036;-76
2023/05/12 07:03:12;;;;;;;10.90;5.88;;;;;;;10.91;100.00;100789.69;4937878;29;20043;-77
2023/05/12 07:05:37;;;;;;;9.75;5.07;;;;;;;11.01;100.00;100790.75;4922119;29;20393;-76
2023/05/12 07:08:03;;;;;;;7.00;4.55;;;;;;;11.09;100.00;100781.78;4937688;29;20035;-76
2023/05/12 07:10:28;;;;;;;12.05;5.35;;;;;;;11.16;100.00;100785.03;4935896;29;20043;-76
2023/05/12 07:12:54;;;;;;;9.70;4.68;;;;;;;11.25;100.00;100790.81;4934959;29;20494;-76
2023/05/12 07:15:19;;;;;;;8.68;4.60;;;;;;;11.33;100.00;100790.19;4932209;29;20029;-76
2023/05/12 07:17:45;;;;;;;13.25;5.88;;;;;;;11.42;100.00;100793.97;4937756;28;20028;-76
2023/05/12 07:20:11;;;;;;;15.10;5.68;;;;;;;11.51;100.00;100799.75;4937834;29;20037;-76
2023/05/12 07:22:37;;;;;;;13.32;4.28;;;;;;;11.58;100.00;100792.69;4937576;29;20084;-76
2023/05/12 07:25:02;;;;;;;10.52;4.40;;;;;;;11.71;100.00;100791.19;4937758;29;20036;-76
2023/05/12 07:27:28;;;;;;;12.50;4.85;;;;;;;11.85;100.00;100786.59;4937425;29;20034;-77
2023/05/12 07:29:53;;;;;;;10.77;4.50;;;;;;;11.93;100.00;100795.44;4921745;29;20028;-77
2023/05/12 07:32:19;;;;;;;12.68;4.63;;;;;;;12.04;100.00;100791.41;4921545;29;20035;-77
2023/05/12 07:34:44;;;;;;;8.98;4.47;;;;;;;12.23;100.00;100789.50;4922192;29;20043;-77
2023/05/12 07:37:10;;;;;;;10.00;4.57;;;;;;;12.36;100.00;100787.09;4920481;29;20096;-77
2023/05/12 07:39:36;;;;;;;13.63;4.10;;;;;;;12.53;100.00;100792.97;4936816;29;20040;-77
2023/05/12 07:42:01;;;;;;;11.85;5.60;;;;;;;12.67;100.00;100785.50;4899976;29;20028;-77
2023/05/12 07:44:27;;;;;;;14.32;6.28;;;;;;;12.84;100.00;100795.31;4915033;29;20028;-77
2023/05/12 07:46:53;;;;;;;15.43;6.40;;;;;;;13.04;100.00;100797.78;4934170;29;20397;-77
2023/05/12 07:49:18;;;;;;;10.55;4.60;;;;;;;13.29;100.00;100790.13;4937419;29;20028;-77
2023/05/12 07:51:44;;;;;;;14.77;4.97;;;;;;;13.51;100.00;100790.31;4921320;29;20029;-77
2023/05/12 07:54:09;;;;;;;14.50;4.05;;;;;;;13.75;100.00;100781.75;4936802;29;20059;-77
2023/05/12 07:56:35;;;;;;;11.10;3.80;;;;;;;14.08;100.00;100779.69;4937117;29;20112;-76
2023/05/12 07:59:00;;;;;;;10.63;3.58;;;;;;;14.33;100.00;100782.28;4921281;29;20035;-77
2023/05/12 08:01:26;;;;;;;11.10;3.30;;;;;;;14.56;100.00;100785.97;4936712;29;20028;-77
2023/05/12 08:03:51;;;;;;;18.88;4.28;;;;;;;14.75;100.00;100784.66;4936982;29;20028;-77
2023/05/12 08:06:17;;;;;;;12.70;4.00;;;;;;;14.97;100.00;100781.06;4921045;29;20036;-77
2023/05/12 08:08:43;;;;;;;11.65;3.30;;;;;;;15.19;100.00;100776.63;4920373;29;20111;-77
2023/05/12 08:11:09;;;;;;;9.57;2.22;;;;;;;15.44;100.00;100777.94;4920661;29;20028;-77
2023/05/12 08:13:36;;;;;;;11.43;3.63;;;;;;;15.62;100.00;100784.44;4917832;29;20041;-77
2023/05/12 08:16:02;;;;;;;7.22;2.60;;;;;;;15.77;100.00;100786.88;4933546;29;20036;-77
2023/05/12 08:18:27;;;;;;;14.27;2.63;;;;;;;15.96;100.00;100786.59;4936896;29;20047;-77
2023/05/12 08:20:53;;;;;;;9.40;2.42;;;;;;;16.01;100.00;100783.66;4936636;29;20036;-77
2023/05/12 08:23:19;;;;;;;10.90;2.33;;;;;;;16.16;100.00;100787.16;4920566;29;20641;-77
2023/05/12 08:25:44;;;;;;;6.57;1.92;;;;;;;16.34;100.00;100788.06;4936604;29;20070;-77
2023/05/12 08:28:11;;;;;;;6.78;2.22;;;;;;;16.56;100.00;100784.31;4936143;29;20051;-77
2023/05/12 08:30:37;;;;;;;9.77;2.47;;;;;;;16.69;100.00;100794.56;4908565;29;20136;-77
2023/05/12 08:33:03;;;;;;;9.68;2.35;;;;;;;16.91;100.00;100802.00;4922028;29;20040;-77
2023/05/12 08:35:28;;;;;;;6.10;1.88;;;;;;;17.13;100.00;100792.59;4920597;29;20031;-77
2023/05/12 08:37:54;;;;;;;9.98;2.20;;;;;;;17.31;100.00;100799.84;4920538;29;20338;-77
2023/05/12 08:40:20;;;;;;;9.52;2.30;;;;;;;17.45;100.00;100802.44;4921529;29;20047;-77
2023/05/12 08:43:11;;;;;;;10.70;2.00;;;;;;;17.56;100.00;100803.75;4920403;29;20040;-77
2023/05/12 08:45:37;;;;;;;8.00;2.17;;;;;;;17.61;100.00;100814.81;4911421;29;20059;-77
2023/05/12 08:48:07;;;;;;;7.38;1.90;;;;;;;17.67;100.00;100809.03;4920292;29;20111;-77
2023/05/12 08:50:35;;;;;;;4.88;1.65;;;;;;;17.60;100.00;100806.69;4916529;29;20458;-77
2023/05/12 08:53:01;;;;;;;8.13;1.95;;;;;;;17.58;100.00;100817.47;4934816;29;20032;-77
2023/05/12 08:55:27;;;;;;;8.32;1.65;;;;;;;17.57;100.00;100825.03;4927655;29;20504;-77
2023/05/12 08:57:52;;;;;;;9.05;1.75;;;;;;;17.58;100.00;100814.66;4923125;29;20098;-77
2023/05/12 09:00:18;;;;;;;6.90;1.80;;;;;;;17.46;100.00;100818.13;4929463;28;20278;-78
2023/05/12 09:02:43;;;;;;;8.38;1.80;;;;;;;17.44;100.00;100817.66;4934825;29;20040;-77
2023/05/12 09:05:09;;;;;;;4.85;1.70;;;;;;;17.30;100.00;100819.81;4904294;29;20423;-77
2023/05/12 09:07:35;;;;;;;8.88;1.75;;;;;;;17.29;100.00;100823.78;4918542;29;20039;-77
2023/05/12 09:10:01;;;;;;;9.13;1.90;;;;;;;17.28;100.00;100822.13;4921176;29;20087;-77
2023/05/12 09:12:30;;;;;;;7.53;1.75;;;;;;;17.25;100.00;100828.41;4935688;29;20040;-78
2023/05/12 09:15:09;;;;;;;8.25;2.13;;;;;;;17.28;100.00;100824.94;4919532;29;20507;-77
2023/05/12 09:17:34;;;;;;;7.38;1.90;;;;;;;17.41;100.00;100819.16;4935663;29;20032;-77
2023/05/12 09:20:01;;;;;;;6.95;1.50;;;;;;;17.53;100.00;100823.25;4925208;29;20028;-77
2023/05/12 09:22:28;;;;;;;4.72;1.30;;;;;;;17.68;100.00;100816.28;4909852;29;20451;-77
2023/05/12 09:24:53;;;;;;;4.10;1.30;;;;;;;17.75;100.00;100817.41;4921025;29;20115;-77
2023/05/12 09:27:28;;;;;;;6.57;1.17;;;;;;;18.00;100.00;100826.13;4935448;29;20087;-77
2023/05/12 09:29:54;;;;;;;5.57;0.95;;;;;;;18.22;100.00;100825.84;4919381;29;20032;-77
2023/05/12 09:32:30;;;;;;;4.68;1.00;;;;;;;18.31;100.00;100825.81;4919366;29;20043;-77
2023/05/12 09:34:56;;;;;;;4.18;0.85;;;;;;;18.46;100.00;100815.97;4935020;29;20428;-77
2023/05/12 09:37:29;;;;;;;8.82;1.45;;;;;;;18.61;100.00;100828.59;4939356;29;20036;-77
2023/05/12 09:39:58;;;;;;;;;;;;;;;18.69;100.00;100824.91;4935544;28;20572;-77
2023/05/12 09:42:23;;;;;;;5.85;1.30;;;;;;;18.85;98.99;100822.34;4919592;29;19922;-78
2023/05/12 09:44:49;;;;;;;5.30;1.27;;;;;;;19.02;98.89;100821.38;4919065;29;20039;-77
2023/05/12 09:47:14;;;;;;;6.93;1.20;;;;;;;19.14;100.00;100815.84;4919182;29;20485;-77
2023/05/12 09:49:44;;;;;;;5.82;1.20;;;;;;;19.21;100.00;100818.91;4934810;28;20397;-77
2023/05/12 09:52:09;;;;;;;5.50;1.30;;;;;;;19.18;94.98;100813.97;4930762;29;20438;-77
2023/05/12 09:54:36;;;;;;;7.32;1.40;;;;;;;19.37;95.27;100816.28;4926209;29;20059;-77
2023/05/12 09:57:03;;;;;;;5.95;1.15;;;;;;;19.38;96.38;100824.38;4934864;29;20048;-77
2023/05/12 09:59:35;;;;;;;9.52;1.30;;;;;;;19.46;91.24;100824.63;4917801;29;20115;-77
2023/05/12 10:02:01;;;;;;;6.05;1.25;;;;;;;19.45;89.41;100828.63;4919157;29;20036;-77
2023/05/12 10:04:38;;;;;;;9.30;1.30;;;;;;;19.46;87.24;100830.28;4934640;29;20409;-77
2023/05/12 10:07:04;;;;;;;7.80;1.20;;;;;;;19.41;88.70;100826.47;4918822;29;20437;-77
2023/05/12 10:09:32;;;;;;;7.22;1.15;;;;;;;19.49;91.38;100826.75;4917841;29;20036;-77
2023/05/12 10:11:58;;;;;;;5.53;1.17;;;;;;;19.64;90.25;100820.47;4914718;29;20552;-77
2023/05/12 10:14:23;;;;;;;4.47;1.08;;;;;;;19.76;88.50;100823.34;4915345;29;20036;-77
2023/05/12 10:16:49;;;;;;;7.95;1.30;;;;;;;19.75;86.60;100818.03;4918212;29;20040;-77
2023/05/12 10:19:15;;;;;;;5.35;1.13;;;;;;;19.75;88.07;100818.91;4934820;29;20096;-77
2023/05/12 10:21:42;;;;;;;5.90;1.60;;;;;;;19.77;88.86;100824.97;4934290;29;20425;-77
2023/05/12 10:24:07;;;;;;;6.90;1.40;;;;;;;19.82;90.95;100824.75;4934222;29;20059;-77
2023/05/12 10:26:35;;;;;;;6.38;0.90;;;;;;;19.88;79.99;100822.53;4919543;29;20043;-77
2023/05/12 10:29:01;;;;;;;6.00;1.00;;;;;;;19.97;84.07;100816.78;4918565;29;20064;-77
2023/05/12 10:31:26;;;;;;;3.33;1.10;;;;;;;20.13;79.98;100809.31;4934383;29;20028;-77
2023/05/12 10:33:58;;;;;;;4.05;0.80;;;;;;;20.32;81.65;100817.19;4933632;29;20111;-77
2023/05/12 10:36:24;;;;;;;4.70;0.93;;;;;;;20.44;78.48;100813.53;4902080;29;20059;-77
2023/05/12 10:38:50;;;;;;;6.28;1.08;;;;;;;20.65;77.36;100819.88;4919496;29;20358;-77
2023/05/12 10:41:16;;;;;;;3.58;0.93;;;;;;;20.86;79.11;100816.06;4918596;29;20036;-78
2023/05/12 10:43:44;;;;;;;3.47;0.80;;;;;;;21.00;73.55;100812.88;4926178;29;20254;-78
2023/05/12 10:46:16;;;;;;;2.90;0.70;;;;;;;21.13;72.31;100811.66;4931069;29;20081;-78
2023/05/12 10:49:05;;;;;;;4.88;0.80;;;;;;;21.27;66.97;100811.25;4933015;29;20490;-77
2023/05/12 10:51:37;;;;;;;4.40;0.85;;;;;;;21.45;69.97;100814.59;4915587;29;20372;-78
2023/05/12 10:54:04;;;;;;;6.47;0.98;;;;;;;21.43;64.18;100812.16;4915194;29;20132;-77
2023/05/12 10:56:35;;;;;;;6.65;1.25;;;;;;;21.51;62.82;100811.16;4930229;29;20585;-78
2023/05/12 10:59:16;;;;;;;4.15;0.63;;;;;;;21.51;61.81;100816.00;4934357;29;20036;-78
2023/05/12 11:01:54;;;;;;;4.15;0.80;;;;;;;21.60;61.18;100808.19;4933038;29;20044;-78
2023/05/12 11:04:21;;;;;;;2.63;0.63;;;;;;;21.31;56.06;100810.19;4903736;29;20032;-77
2023/05/12 11:06:57;;;;;;;4.43;0.80;;;;;;;21.30;56.21;100810.53;4919377;29;20481;-78
2023/05/12 11:09:23;;;;;;;3.40;0.80;;;;;;;21.32;57.13;100802.53;4917208;29;20118;-79
2023/05/12 11:11:49;;;;;;;2.83;1.05;;;;;;;21.39;60.77;100814.03;4934082;28;20032;-78
2023/05/12 11:14:14;;;;;;;3.05;0.80;;;;;;;21.49;58.30;100801.41;4934131;29;20035;-78
2023/05/12 11:16:43;;;;;;;3.30;1.00;;;;;;;21.53;58.81;100805.94;4935325;29;20028;-78